Detall de PIREP

Printer-friendly versionPDF version

[2012/07/15 14:00:00]
Flight IATA:CT3122
Pilot Number:026
Company ICAO:CAT
Aircraft Type:DC85/A
PAX:0
Aircraft Registration:CARGO
Departing Airport: LEPA
Destination Airport: LEZG
Alternate Airport:LEDA
Online: VATSIM
Route:DRAGO A29 PAPOS R80 MLA
Flight Level:F180
No Slew and time accel
No pause
Crash detect
Detect pilot in Cockpit between each 30 and 45 minutes
14:00 Zero fuel Weight: 187230 Lbs, Fuel Weight: 24016 Lbs
14:00 VATSIM:LEPA 151330Z 24010KT 210V290 9999 FEW030 SCT052 28/17 Q1020 NOSIG
14:00 VATSIM:LEZG 151330Z 32016KT 280V020 9999 FEW055 26/07 Q1022
14:00 VOICE CATALONIAN / IATA CT3122 INTERHUB ROUTE
14:08 Parking Brakes off
14:28 Take-off
14:28 Take off Weight: 209562 Lbs
14:28 Wind: 218º @ 010 Knots Heading: 236º
14:28 POS N39º 33´ 07´´ E002º 43´ 16´´
14:28 Gear Up: 180 Knots
14:28 Flaps:2 at 180 Knots
14:28 Flaps:1 at 211 Knots
14:29 Flaps:0 at218 Knots
14:37 TOC
14:37 Fuel Weight: 19315 Lb
14:43 Wind:197º@024 Knots Heading: 314º Ground Speed: 435 Knots Altitude 18198 ft
14:51 TOD
14:51 Fuel Weight: 15877 Lb
14:58 Wind:317º@023 Knots Heading: 289º Ground Speed: 355 Knots Altitude 9488 ft
15:08 Flaps:1 at 184 Knots
15:08 Gear Down: 185 Knots
15:10 Flaps:2 at 170 Knots
15:10 Flaps:3 at 163 Knots
15:11 Flaps:4 at 141 Knots
15:11 TouchDown:Rate -138 ft/min Speed: 127 Knots
15:11 VATSIM:LEZG 151500Z 31016KT 270V340 9999 FEW055 27/07 Q1022
15:11 Land
15:11 Wind:291º@013 Knots
15:11 Heading: 297º
15:11 Flight Duration: 00:43
15:11 Landing Weight: 201009 Lbs
15:11 POS N41º 39´ 45´´ W001º 01´ 28´´
15:17 Parking brakes on
15:17 Block to Block Duration: 01:09
15:17 Final Fuel: 13218 Lbls
15:17 Spent Fuel: 10798 Lbls
15:17 Flight Length: 241 NM
15:17 TOD Land Length: 92 NM

Exportar CSV

Powered by Drupal - Modified by Danger4k